createdAt,value
2023-03-20T00:00:34.059Z,147586.25
2023-03-20T00:01:37.413Z,147555.97
2023-03-20T00:02:39.932Z,147558.41
2023-03-20T00:03:43.011Z,147566.88
2023-03-20T00:04:45.614Z,147579.00
2023-03-20T00:05:48.095Z,147548.69
2023-03-20T00:06:50.617Z,147571.75
2023-03-20T00:07:53.263Z,147557.19
2023-03-20T00:08:57.586Z,147558.41
2023-03-20T00:10:00.453Z,147540.22
2023-03-20T00:11:02.979Z,147531.72
2023-03-20T00:12:05.985Z,147525.69
2023-03-20T00:13:14.993Z,147547.47
2023-03-20T00:14:20.376Z,147534.13
2023-03-20T00:15:32.658Z,147520.84
2023-03-20T00:16:39.964Z,147528.09
2023-03-20T00:17:42.584Z,147472.47
2023-03-20T00:18:45.229Z,147471.28
2023-03-20T00:19:47.876Z,147484.56
2023-03-20T00:20:51.472Z,147480.94
2023-03-20T00:21:55.185Z,147477.31
2023-03-20T00:22:57.708Z,147473.69
2023-03-20T00:24:00.824Z,147474.91
2023-03-20T00:25:03.590Z,147501.47
2023-03-20T00:26:06.587Z,147473.69
2023-03-20T00:27:18.228Z,147499.06
2023-03-20T00:28:30.123Z,147472.47
2023-03-20T00:29:34.485Z,147491.81
2023-03-20T00:30:36.952Z,147474.91
2023-03-20T00:31:40.337Z,147480.94
2023-03-20T00:32:42.895Z,147457.94
2023-03-20T00:33:46.913Z,147441.03
2023-03-20T00:34:49.433Z,147416.81
2023-03-20T00:35:51.864Z,147409.56
2023-03-20T00:36:54.599Z,147431.31
2023-03-20T00:37:58.440Z,147443.44
2023-03-20T00:39:02.061Z,147416.81
2023-03-20T00:40:04.800Z,147382.97
2023-03-20T00:41:34.686Z,147402.28
2023-03-20T00:42:37.439Z,147370.84
2023-03-20T00:43:40.081Z,147346.69
2023-03-20T00:45:13.080Z,147382.97
2023-03-20T00:46:16.016Z,147328.53
2023-03-20T00:47:21.490Z,147332.16
2023-03-20T00:48:24.006Z,147332.16
2023-03-20T00:49:29.403Z,147358.75
2023-03-20T00:50:31.940Z,147335.75
2023-03-20T00:51:34.337Z,147321.28
2023-03-20T00:52:37.565Z,147310.41
2023-03-20T00:53:39.969Z,147281.38
2023-03-20T00:54:42.488Z,147310.41
2023-03-20T00:55:45.008Z,147295.88
2023-03-20T00:57:06.730Z,147345.47
2023-03-20T00:58:12.012Z,147359.97
2023-03-20T00:59:20.772Z,147370.84
2023-03-20T01:00:36.521Z,147370.84
2023-03-20T01:01:39.071Z,147341.84
2023-03-20T01:02:42.133Z,147330.94
2023-03-20T01:03:44.651Z,147323.69
2023-03-20T01:04:48.854Z,147310.41
2023-03-20T01:05:51.861Z,147305.53
2023-03-20T01:06:54.379Z,147305.53
2023-03-20T01:07:57.018Z,147310.41
2023-03-20T01:09:00.264Z,147312.81
2023-03-20T01:10:02.781Z,147324.91
2023-03-20T01:11:05.908Z,147322.50
2023-03-20T01:12:10.697Z,147303.13
2023-03-20T01:13:25.338Z,147330.94
2023-03-20T01:14:27.855Z,147309.19
2023-03-20T01:15:34.174Z,147333.34
2023-03-20T01:16:36.955Z,147316.44
2023-03-20T01:17:39.498Z,147312.81
2023-03-20T01:18:41.786Z,147301.91
2023-03-20T01:19:44.308Z,147320.06
2023-03-20T01:20:47.917Z,147334.56
2023-03-20T01:21:50.786Z,147334.56
2023-03-20T01:22:53.307Z,147329.72
2023-03-20T01:23:55.941Z,147332.16
2023-03-20T01:24:58.463Z,147334.56
2023-03-20T01:26:00.997Z,147322.50
2023-03-20T01:27:05.544Z,147351.50
2023-03-20T01:28:23.318Z,147375.72
2023-03-20T01:29:30.516Z,147333.34
2023-03-20T01:30:34.253Z,147324.91
2023-03-20T01:31:36.866Z,147320.06
2023-03-20T01:32:39.659Z,147328.53
2023-03-20T01:33:42.391Z,147344.28
2023-03-20T01:34:45.153Z,147364.78
2023-03-20T01:35:49.033Z,147350.31
2023-03-20T01:36:54.874Z,147373.28
2023-03-20T01:37:57.750Z,147363.59
2023-03-20T01:39:00.404Z,147363.59
2023-03-20T01:40:03.635Z,147351.50
2023-03-20T01:41:18.280Z,147363.59
2023-03-20T01:42:20.938Z,147341.84
2023-03-20T01:43:26.436Z,147353.94
2023-03-20T01:44:31.241Z,147375.72
2023-03-20T01:45:36.702Z,147368.41
2023-03-20T01:46:40.718Z,147346.69
2023-03-20T01:47:52.238Z,147341.84
2023-03-20T01:49:19.127Z,147357.56
2023-03-20T01:50:26.897Z,147327.31
2023-03-20T01:51:36.401Z,147308.00
2023-03-20T01:52:44.928Z,147321.28
2023-03-20T01:53:52.009Z,147344.28
2023-03-20T01:54:54.523Z,147323.69
2023-03-20T01:55:59.947Z,147322.50
2023-03-20T01:57:16.974Z,147336.97
2023-03-20T01:58:25.766Z,147328.53
2023-03-20T01:59:41.593Z,147320.06
2023-03-20T02:00:45.535Z,147322.50
2023-03-20T02:01:51.770Z,147315.25
2023-03-20T02:02:57.538Z,147298.28
2023-03-20T02:04:41.545Z,147339.44
2023-03-20T02:05:46.616Z,147317.66
2023-03-20T02:06:49.135Z,147287.41
2023-03-20T02:08:27.297Z,147323.69
2023-03-20T02:09:30.415Z,147303.13
2023-03-20T02:10:34.383Z,147291.03
2023-03-20T02:11:54.781Z,147305.53
2023-03-20T02:12:58.017Z,147297.09
2023-03-20T02:14:10.500Z,147299.50
2023-03-20T02:15:27.542Z,147333.34
2023-03-20T02:16:48.244Z,147324.91
2023-03-20T02:18:09.183Z,147311.63
2023-03-20T02:19:27.660Z,147330.94
2023-03-20T02:20:44.586Z,147310.41
2023-03-20T02:22:05.228Z,147332.16
2023-03-20T02:23:37.622Z,147324.91
2023-03-20T02:25:15.840Z,147300.69
2023-03-20T02:26:31.755Z,147361.19
2023-03-20T02:28:10.154Z,147358.75
2023-03-20T02:29:39.319Z,147352.72
2023-03-20T02:31:19.547Z,147363.59
2023-03-20T02:32:37.807Z,147349.09
2023-03-20T02:33:46.029Z,147347.88
2023-03-20T02:35:12.669Z,147341.84
2023-03-20T02:36:34.515Z,147330.94
2023-03-20T02:38:02.252Z,147332.16
2023-03-20T02:39:25.875Z,147347.88
2023-03-20T02:40:43.895Z,147352.72
2023-03-20T02:42:05.356Z,147347.88
2023-03-20T02:43:17.599Z,147346.69
2023-03-20T02:44:41.486Z,147340.66
2023-03-20T02:46:05.852Z,147351.50
2023-03-20T02:47:18.798Z,147336.97
2023-03-20T02:48:39.198Z,147332.16
2023-03-20T02:49:42.079Z,147301.91
2023-03-20T02:51:04.643Z,147303.13
2023-03-20T02:52:27.341Z,147344.28
2023-03-20T02:54:05.122Z,147349.09
2023-03-20T02:55:32.103Z,147339.44
2023-03-20T02:57:02.250Z,147339.44
2023-03-20T02:58:14.273Z,147317.66
2023-03-20T02:59:26.126Z,147320.06
2023-03-20T03:00:37.409Z,147343.06
2023-03-20T03:01:47.798Z,147320.06
2023-03-20T03:03:07.309Z,147352.72
2023-03-20T03:04:18.468Z,147349.09
2023-03-20T03:05:29.970Z,147334.56
2023-03-20T03:06:36.088Z,147326.09
2023-03-20T03:07:42.450Z,147335.75
2023-03-20T03:08:50.735Z,147352.72
2023-03-20T03:10:00.333Z,147343.06
2023-03-20T03:11:06.821Z,147340.66
2023-03-20T03:12:21.935Z,147341.84
2023-03-20T03:13:29.975Z,147317.66
2023-03-20T03:14:37.418Z,147351.50
2023-03-20T03:15:47.158Z,147326.09
2023-03-20T03:16:51.829Z,147327.31
2023-03-20T03:17:56.148Z,147333.34
2023-03-20T03:19:08.979Z,147356.34
2023-03-20T03:20:26.619Z,147356.34
2023-03-20T03:21:30.718Z,147334.56
2023-03-20T03:22:34.569Z,147341.84
2023-03-20T03:23:45.478Z,147349.09
2023-03-20T03:24:53.661Z,147344.28
2023-03-20T03:25:59.145Z,147303.13
2023-03-20T03:27:05.743Z,147312.81
2023-03-20T03:28:10.935Z,147316.44
2023-03-20T03:29:17.513Z,147316.44
2023-03-20T03:30:27.223Z,147341.84
2023-03-20T03:31:31.949Z,147346.69
2023-03-20T03:32:49.853Z,147338.19
2023-03-20T03:33:54.984Z,147339.44
2023-03-20T03:34:59.868Z,147344.28
2023-03-20T03:36:21.470Z,147346.69
2023-03-20T03:37:40.914Z,147332.16
2023-03-20T03:39:02.993Z,147318.88
2023-03-20T03:40:19.194Z,147315.25
2023-03-20T03:41:28.555Z,147324.91
2023-03-20T03:42:50.394Z,147315.25
2023-03-20T03:43:57.720Z,147291.03
2023-03-20T03:45:07.801Z,147300.69
2023-03-20T03:46:17.337Z,147294.66
2023-03-20T03:47:31.805Z,147300.69
2023-03-20T03:48:40.918Z,147300.69
2023-03-20T03:49:49.920Z,147318.88
2023-03-20T03:50:56.768Z,147303.13
2023-03-20T03:52:05.892Z,147305.53
2023-03-20T03:53:12.264Z,147293.47
2023-03-20T03:54:31.205Z,147308.00
2023-03-20T03:56:14.343Z,147304.31
2023-03-20T03:57:22.933Z,147287.41
2023-03-20T03:58:31.113Z,147271.69
2023-03-20T03:59:40.449Z,147276.56
2023-03-20T04:00:48.005Z,147278.97
2023-03-20T04:01:52.629Z,147274.13
2023-03-20T04:02:57.729Z,147275.34
2023-03-20T04:04:04.928Z,147280.19
2023-03-20T04:05:09.494Z,147271.69
2023-03-20T04:06:12.971Z,147264.44
2023-03-20T04:07:16.228Z,147272.88
2023-03-20T04:08:18.736Z,147274.13
2023-03-20T04:09:21.257Z,147270.47
2023-03-20T04:10:24.133Z,147283.81
2023-03-20T04:11:30.382Z,147264.44
2023-03-20T04:12:34.819Z,147277.75
2023-03-20T04:13:37.485Z,147255.97
2023-03-20T04:14:39.986Z,147249.94
2023-03-20T04:15:43.220Z,147262.03
2023-03-20T04:16:46.223Z,147248.75
2023-03-20T04:17:49.104Z,147270.47
2023-03-20T04:18:53.668Z,147283.81
2023-03-20T04:19:56.671Z,147281.38
2023-03-20T04:21:00.113Z,147276.56
2023-03-20T04:22:03.514Z,147280.19
2023-03-20T04:23:06.750Z,147259.59
2023-03-20T04:24:09.271Z,147254.78
2023-03-20T04:25:20.324Z,147276.56
2023-03-20T04:26:24.406Z,147249.94
2023-03-20T04:27:27.635Z,147268.06
2023-03-20T04:28:30.391Z,147247.53
2023-03-20T04:29:40.726Z,147245.13
2023-03-20T04:31:02.429Z,147276.56
2023-03-20T04:32:26.914Z,147264.44
2023-03-20T04:33:37.985Z,147235.41
2023-03-20T04:34:58.006Z,147243.91
2023-03-20T04:36:23.675Z,147252.38
2023-03-20T04:37:28.356Z,147262.03
2023-03-20T04:38:41.438Z,147249.94
2023-03-20T04:39:44.680Z,147245.13
2023-03-20T04:40:47.692Z,147247.53
2023-03-20T04:41:50.205Z,147249.94
2023-03-20T04:42:52.727Z,147247.53
2023-03-20T04:43:55.958Z,147252.38
2023-03-20T04:44:59.219Z,147247.53
2023-03-20T04:46:02.254Z,147252.38
2023-03-20T04:47:04.973Z,147230.59
2023-03-20T04:48:09.281Z,147262.03
2023-03-20T04:49:13.723Z,147247.53
2023-03-20T04:50:16.483Z,147231.78
2023-03-20T04:51:19.741Z,147226.97
2023-03-20T04:52:26.692Z,147245.13
2023-03-20T04:53:29.207Z,147240.25
2023-03-20T04:54:31.845Z,147225.75
2023-03-20T04:55:34.601Z,147237.84
2023-03-20T04:56:37.248Z,147235.41
2023-03-20T04:58:05.927Z,147222.13
2023-03-20T04:59:08.450Z,147213.69
2023-03-20T05:00:11.698Z,147223.34
2023-03-20T05:01:14.261Z,147226.97
2023-03-20T05:02:18.049Z,147206.41
2023-03-20T05:03:23.401Z,147208.84
2023-03-20T05:04:27.941Z,147203.97
2023-03-20T05:05:30.895Z,147206.41
2023-03-20T05:06:33.302Z,147216.09
2023-03-20T05:07:36.563Z,147188.28
2023-03-20T05:08:47.460Z,147195.53
2023-03-20T05:09:52.611Z,147191.91
2023-03-20T05:10:55.016Z,147191.91
2023-03-20T05:12:16.137Z,147177.44
2023-03-20T05:13:35.955Z,147184.66
2023-03-20T05:14:58.619Z,147178.63
2023-03-20T05:16:23.946Z,147195.53
2023-03-20T05:17:46.503Z,147201.56
2023-03-20T05:19:13.508Z,147206.41
2023-03-20T05:20:33.299Z,147182.25
2023-03-20T05:21:42.428Z,147185.88
2023-03-20T05:23:10.382Z,147197.94
2023-03-20T05:24:26.360Z,147201.56
2023-03-20T05:25:40.506Z,147211.28
2023-03-20T05:27:02.461Z,147211.28
2023-03-20T05:28:23.482Z,147191.91
2023-03-20T05:29:52.144Z,147203.97
2023-03-20T05:31:23.172Z,147257.19
2023-03-20T05:32:45.958Z,147225.75
2023-03-20T05:34:08.711Z,147208.84
2023-03-20T05:35:43.699Z,147213.69
2023-03-20T05:37:18.309Z,147220.94
2023-03-20T05:38:40.035Z,147216.09
2023-03-20T05:39:56.472Z,147213.69
2023-03-20T05:41:19.275Z,147202.78
2023-03-20T05:43:00.436Z,147197.94
2023-03-20T05:44:21.707Z,147213.69
2023-03-20T05:45:44.353Z,147218.50
2023-03-20T05:46:59.850Z,147219.72
2023-03-20T05:48:37.524Z,147205.19
2023-03-20T05:49:59.000Z,147213.69
2023-03-20T05:51:27.446Z,147230.59
2023-03-20T05:52:35.846Z,147242.72
2023-03-20T05:53:57.200Z,147223.34
2023-03-20T05:55:20.002Z,147243.91
2023-03-20T05:56:39.122Z,147225.75
2023-03-20T05:57:59.370Z,147234.22
2023-03-20T05:59:12.686Z,147239.03
2023-03-20T06:00:33.587Z,147242.72
2023-03-20T06:01:59.249Z,147219.72
2023-03-20T06:03:07.084Z,147242.72
2023-03-20T06:04:26.612Z,147280.19
2023-03-20T06:05:55.413Z,147259.59
2023-03-20T06:06:58.054Z,147264.44
2023-03-20T06:08:00.580Z,147264.44
2023-03-20T06:09:03.097Z,147280.19
2023-03-20T06:10:06.586Z,147288.63
2023-03-20T06:11:10.547Z,147286.22
2023-03-20T06:12:14.016Z,147276.56
2023-03-20T06:13:16.654Z,147264.44
2023-03-20T06:14:19.294Z,147249.94
2023-03-20T06:15:29.381Z,147247.53
2023-03-20T06:16:39.464Z,147259.59
2023-03-20T06:17:41.978Z,147259.59
2023-03-20T06:18:44.505Z,147237.84
2023-03-20T06:19:47.886Z,147265.63
2023-03-20T06:20:56.634Z,147281.38
2023-03-20T06:22:00.700Z,147269.25
2023-03-20T06:23:03.230Z,147255.97
2023-03-20T06:24:06.001Z,147260.81
2023-03-20T06:25:08.867Z,147264.44
2023-03-20T06:26:15.839Z,147268.06
2023-03-20T06:27:34.785Z,147287.41
2023-03-20T06:28:37.306Z,147298.28
2023-03-20T06:29:43.067Z,147259.59
2023-03-20T06:30:54.632Z,147295.88
2023-03-20T06:31:58.790Z,147281.38
2023-03-20T06:33:08.392Z,147292.25
2023-03-20T06:34:20.384Z,147286.22
2023-03-20T06:35:23.669Z,147310.41
2023-03-20T06:36:26.868Z,147320.06
2023-03-20T06:37:36.623Z,147332.16
2023-03-20T06:38:44.151Z,147346.69
2023-03-20T06:39:50.391Z,147320.06
2023-03-20T06:40:53.470Z,147305.53
2023-03-20T06:41:56.153Z,147336.97
2023-03-20T06:43:06.877Z,147306.78
2023-03-20T06:44:19.115Z,147335.75
2023-03-20T06:45:54.246Z,147317.66
2023-03-20T06:47:02.550Z,147339.44
2023-03-20T06:48:10.388Z,147363.59
2023-03-20T06:49:15.038Z,147341.84
2023-03-20T06:50:18.025Z,147324.91
2023-03-20T06:51:20.664Z,147314.03
2023-03-20T06:52:28.348Z,147316.44
2023-03-20T06:53:52.279Z,147294.66
2023-03-20T06:54:59.069Z,147329.72
2023-03-20T06:56:02.441Z,147330.94
2023-03-20T06:57:05.645Z,147334.56
2023-03-20T06:58:11.201Z,147356.34
2023-03-20T06:59:14.691Z,147338.19
2023-03-20T07:00:18.359Z,147335.75
2023-03-20T07:01:21.161Z,147317.66
2023-03-20T07:02:24.486Z,147312.81
2023-03-20T07:03:27.007Z,147299.50
2023-03-20T07:04:29.739Z,147328.53
2023-03-20T07:05:36.078Z,147336.97
2023-03-20T07:06:42.735Z,147334.56
2023-03-20T07:07:46.102Z,147327.31
2023-03-20T07:08:48.741Z,147332.16
2023-03-20T07:09:51.270Z,147332.16
2023-03-20T07:10:53.772Z,147341.84
2023-03-20T07:11:56.294Z,147358.75
2023-03-20T07:13:00.389Z,147387.78
2023-03-20T07:14:03.736Z,147399.88
2023-03-20T07:15:27.375Z,147378.13
2023-03-20T07:16:29.953Z,147378.13
2023-03-20T07:17:32.540Z,147382.97
2023-03-20T07:18:35.059Z,147366.00
2023-03-20T07:19:38.295Z,147382.97
2023-03-20T07:20:41.426Z,147399.88
2023-03-20T07:21:44.429Z,147412.00
2023-03-20T07:22:48.982Z,147420.44
2023-03-20T07:23:54.385Z,147412.00
2023-03-20T07:24:57.267Z,147387.78
2023-03-20T07:26:01.260Z,147425.28
2023-03-20T07:27:03.989Z,147414.41
2023-03-20T07:28:08.310Z,147432.53
2023-03-20T07:29:13.959Z,147397.44
2023-03-20T07:30:18.275Z,147422.88
2023-03-20T07:31:24.783Z,147409.56
2023-03-20T07:32:43.388Z,147397.44
2023-03-20T07:33:46.253Z,147407.16
2023-03-20T07:34:50.340Z,147410.78
2023-03-20T07:35:55.297Z,147428.91
2023-03-20T07:36:58.370Z,147415.63
2023-03-20T07:38:01.043Z,147433.72
2023-03-20T07:39:04.120Z,147409.56
2023-03-20T07:40:09.402Z,147438.63
2023-03-20T07:41:20.675Z,147407.16
2023-03-20T07:42:33.639Z,147421.66
2023-03-20T07:43:47.192Z,147436.16
2023-03-20T07:45:09.520Z,147434.94
2023-03-20T07:46:12.117Z,147439.81
2023-03-20T07:47:14.555Z,147404.75
2023-03-20T07:48:17.438Z,147439.81
2023-03-20T07:49:20.334Z,147441.03
2023-03-20T07:50:22.958Z,147465.19
2023-03-20T07:51:25.724Z,147436.16
2023-03-20T07:52:28.238Z,147467.59
2023-03-20T07:53:30.757Z,147479.72
2023-03-20T07:54:33.280Z,147470.06
2023-03-20T07:55:36.032Z,147472.47
2023-03-20T07:56:38.682Z,147477.31
2023-03-20T07:57:41.082Z,147467.59
2023-03-20T07:58:43.605Z,147477.31
2023-03-20T07:59:46.120Z,147467.59
2023-03-20T08:00:48.641Z,147471.28
2023-03-20T08:01:51.522Z,147501.47
2023-03-20T08:02:54.117Z,147478.53
2023-03-20T08:03:56.924Z,147529.31
2023-03-20T08:04:59.567Z,147555.97
2023-03-20T08:06:04.253Z,147545.06
2023-03-20T08:07:06.924Z,147557.19
2023-03-20T08:08:09.526Z,147581.41
2023-03-20T08:09:12.304Z,147575.38
2023-03-20T08:10:14.806Z,147606.84
2023-03-20T08:11:17.573Z,147610.47
2023-03-20T08:12:20.090Z,147594.69
2023-03-20T08:13:22.619Z,147564.44
2023-03-20T08:14:25.254Z,147549.91
2023-03-20T08:15:27.654Z,147540.22
2023-03-20T08:16:30.238Z,147522.06
2023-03-20T08:17:32.857Z,147536.59
2023-03-20T08:18:35.717Z,147518.44
2023-03-20T08:19:38.457Z,147540.22
2023-03-20T08:20:40.979Z,147536.59
2023-03-20T08:21:43.500Z,147568.13
2023-03-20T08:22:45.905Z,147591.06
2023-03-20T08:23:48.428Z,147583.81
2023-03-20T08:24:50.944Z,147587.44
2023-03-20T08:25:54.424Z,147603.22
2023-03-20T08:26:56.944Z,147593.50
2023-03-20T08:28:01.753Z,147574.16
2023-03-20T08:29:04.748Z,147558.41
2023-03-20T08:30:07.772Z,147571.75
2023-03-20T08:31:10.449Z,147571.75
2023-03-20T08:32:13.031Z,147571.75
2023-03-20T08:33:17.216Z,147586.25
2023-03-20T08:34:20.273Z,147566.88
2023-03-20T08:35:32.928Z,147571.75
2023-03-20T08:36:36.558Z,147591.06
2023-03-20T08:37:39.194Z,147610.47
2023-03-20T08:38:42.808Z,147624.97
2023-03-20T08:39:45.311Z,147593.50
2023-03-20T08:40:47.716Z,147595.91
2023-03-20T08:41:50.359Z,147577.78
2023-03-20T08:42:52.883Z,147575.38
2023-03-20T08:43:55.280Z,147632.25
2023-03-20T08:44:57.805Z,147618.91
2023-03-20T08:46:00.358Z,147644.34
2023-03-20T08:47:03.675Z,147622.53
2023-03-20T08:48:06.565Z,147629.78
2023-03-20T08:49:08.965Z,147640.72
2023-03-20T08:50:12.087Z,147668.56
2023-03-20T08:51:15.099Z,147673.41
2023-03-20T08:52:17.598Z,147700.03
2023-03-20T08:53:22.141Z,147697.63
2023-03-20T08:54:25.327Z,147724.22
2023-03-20T08:55:27.800Z,147703.66
2023-03-20T08:56:30.560Z,147680.66
2023-03-20T08:57:32.968Z,147678.22
2023-03-20T08:58:35.602Z,147695.16
2023-03-20T08:59:38.125Z,147657.63
2023-03-20T09:00:42.204Z,147639.50
2023-03-20T09:01:49.786Z,147643.13
2023-03-20T09:02:52.838Z,147627.38
2023-03-20T09:03:55.405Z,147684.28
2023-03-20T09:04:57.966Z,147721.81
2023-03-20T09:06:00.574Z,147735.16
2023-03-20T09:07:03.337Z,147741.19
2023-03-20T09:08:05.732Z,147746.03
2023-03-20T09:09:08.606Z,147753.28
2023-03-20T09:10:12.105Z,147760.53
2023-03-20T09:11:14.735Z,147719.38
2023-03-20T09:12:17.275Z,147598.31
2023-03-20T09:13:27.183Z,147592.28
2023-03-20T09:14:30.222Z,147606.84
2023-03-20T09:15:32.734Z,147610.47
2023-03-20T09:16:35.470Z,147612.88
2023-03-20T09:17:37.904Z,147626.16
2023-03-20T09:18:40.417Z,147634.69
2023-03-20T09:19:44.773Z,147629.78
2023-03-20T09:20:47.978Z,147635.88
2023-03-20T09:21:50.738Z,147683.06
2023-03-20T09:22:54.541Z,147652.81
2023-03-20T09:23:57.223Z,147628.59
2023-03-20T09:24:59.871Z,147666.16
2023-03-20T09:26:02.378Z,147644.34
2023-03-20T09:27:04.905Z,147685.50
2023-03-20T09:28:07.312Z,147684.28
2023-03-20T09:29:09.944Z,147649.19
2023-03-20T09:30:13.304Z,147651.59
2023-03-20T09:31:15.741Z,147657.63
2023-03-20T09:32:18.227Z,147713.34
2023-03-20T09:33:20.749Z,147735.16
2023-03-20T09:34:24.354Z,147767.84
2023-03-20T09:35:26.989Z,147769.03
2023-03-20T09:36:29.517Z,147736.34
2023-03-20T09:37:32.028Z,147789.59
2023-03-20T09:38:34.792Z,147823.50
2023-03-20T09:39:37.329Z,147841.69
2023-03-20T09:40:45.849Z,147855.00
2023-03-20T09:41:57.123Z,147835.63
2023-03-20T09:43:11.872Z,147801.75
2023-03-20T09:44:42.003Z,147767.84
2023-03-20T09:46:22.234Z,147737.56
2023-03-20T09:47:41.036Z,147775.09
2023-03-20T09:49:07.693Z,147806.56
2023-03-20T09:50:25.317Z,147787.19
2023-03-20T09:51:33.597Z,147823.50
2023-03-20T09:52:42.357Z,147858.63
2023-03-20T09:53:54.976Z,147901.03
2023-03-20T09:55:02.533Z,147932.59
2023-03-20T09:56:11.178Z,147917.97
2023-03-20T09:57:29.766Z,147968.94
2023-03-20T09:58:37.808Z,147973.75
2023-03-20T09:59:40.442Z,148005.25
2023-03-20T10:00:46.207Z,147978.59
2023-03-20T10:02:04.818Z,147978.59
2023-03-20T10:03:17.523Z,147891.31
2023-03-20T10:04:20.464Z,147891.31
2023-03-20T10:05:27.964Z,147939.84
2023-03-20T10:06:30.485Z,147943.47
2023-03-20T10:07:33.007Z,147917.97
2023-03-20T10:08:38.528Z,147938.63
2023-03-20T10:09:41.288Z,147972.56
2023-03-20T10:10:53.175Z,148035.56
2023-03-20T10:11:58.451Z,148025.88
2023-03-20T10:13:38.650Z,148102.22
2023-03-20T10:14:56.174Z,148179.75
2023-03-20T10:16:32.495Z,148208.84
2023-03-20T10:17:40.822Z,148216.13
2023-03-20T10:18:57.373Z,148179.75
2023-03-20T10:20:11.894Z,148099.78
2023-03-20T10:21:24.976Z,148070.69
2023-03-20T10:22:36.638Z,148070.69
2023-03-20T10:23:47.060Z,148030.72
2023-03-20T10:24:59.299Z,148044.03
2023-03-20T10:26:13.707Z,148062.22
2023-03-20T10:27:32.788Z,148044.03
2023-03-20T10:28:51.024Z,148063.44
2023-03-20T10:30:08.782Z,148073.13
2023-03-20T10:31:42.917Z,148090.09
2023-03-20T10:33:00.236Z,148126.47
2023-03-20T10:34:05.662Z,148160.41
2023-03-20T10:35:13.830Z,148242.81
2023-03-20T10:36:47.017Z,148372.59
2023-03-20T10:38:22.709Z,148632.28
2023-03-20T10:39:59.916Z,148882.47
2023-03-20T10:41:04.601Z,148976.00
2023-03-20T10:42:18.290Z,149109.69
2023-03-20T10:43:24.752Z,149307.81
2023-03-20T10:44:37.712Z,149618.06
2023-03-20T10:45:45.879Z,149710.56
2023-03-20T10:46:53.263Z,149764.13
2023-03-20T10:47:57.696Z,149778.75
2023-03-20T10:49:08.928Z,149825.03
2023-03-20T10:50:18.746Z,149632.69
2023-03-20T10:51:25.115Z,149243.38
2023-03-20T10:52:38.085Z,149078.06
2023-03-20T10:53:52.137Z,149028.22
2023-03-20T10:55:21.292Z,148861.78
2023-03-20T10:56:29.086Z,148740.31
2023-03-20T10:57:36.639Z,148728.19
2023-03-20T10:58:41.919Z,148854.53
2023-03-20T10:59:51.082Z,148810.78
2023-03-20T11:00:56.785Z,148735.47
2023-03-20T11:01:59.322Z,148696.63
2023-03-20T11:03:01.855Z,148696.63
2023-03-20T11:04:04.645Z,148661.44
2023-03-20T11:05:35.100Z,148686.94
2023-03-20T11:07:04.965Z,148778.00
2023-03-20T11:08:16.486Z,148825.31
2023-03-20T11:09:22.255Z,148852.09
2023-03-20T11:10:26.821Z,148685.72
2023-03-20T11:11:34.866Z,148638.34
2023-03-20T11:12:46.739Z,148623.81
2023-03-20T11:13:49.494Z,148584.97
2023-03-20T11:15:01.252Z,148631.06
2023-03-20T11:16:19.913Z,148612.91
2023-03-20T11:17:22.255Z,148570.41
2023-03-20T11:18:26.456Z,148553.38
2023-03-20T11:19:37.387Z,148594.69
2023-03-20T11:20:44.707Z,148650.53
2023-03-20T11:21:52.532Z,148565.53
2023-03-20T11:23:02.946Z,148458.75
2023-03-20T11:24:06.064Z,148519.41
2023-03-20T11:25:24.303Z,148533.94
2023-03-20T11:26:41.461Z,148527.88
2023-03-20T11:27:43.986Z,148450.25
2023-03-20T11:28:53.260Z,148378.66
2023-03-20T11:29:57.184Z,148359.28
2023-03-20T11:31:07.513Z,148327.75
2023-03-20T11:32:35.051Z,148339.88
2023-03-20T11:33:41.255Z,148330.16
2023-03-20T11:34:43.875Z,148287.75
2023-03-20T11:35:47.973Z,148293.78
2023-03-20T11:37:10.151Z,148313.16
2023-03-20T11:38:19.869Z,148356.84
2023-03-20T11:39:28.028Z,148381.09
2023-03-20T11:40:33.465Z,148390.81
2023-03-20T11:42:02.113Z,148371.38
2023-03-20T11:43:11.973Z,148393.25
2023-03-20T11:44:23.228Z,148407.78
2023-03-20T11:45:26.477Z,148435.69
2023-03-20T11:46:28.994Z,148400.50
2023-03-20T11:47:36.207Z,148390.81
2023-03-20T11:48:41.714Z,148390.81
2023-03-20T11:49:52.995Z,148342.28
2023-03-20T11:51:05.354Z,148276.81
2023-03-20T11:52:13.758Z,148263.47
2023-03-20T11:53:54.436Z,148193.13
2023-03-20T11:54:59.610Z,148142.19
2023-03-20T11:56:12.699Z,148171.28
2023-03-20T11:57:43.787Z,148142.19
2023-03-20T11:58:58.287Z,148150.66
2023-03-20T12:00:25.536Z,148130.09
2023-03-20T12:01:29.604Z,148104.63
2023-03-20T12:02:32.646Z,148130.09
2023-03-20T12:03:37.940Z,148155.56
2023-03-20T12:04:45.804Z,148139.78
2023-03-20T12:05:48.328Z,148153.09
2023-03-20T12:07:11.202Z,148156.75
2023-03-20T12:08:20.370Z,148190.69
2023-03-20T12:09:40.531Z,148174.91
2023-03-20T12:10:46.650Z,148206.44
2023-03-20T12:11:52.654Z,148251.28
2023-03-20T12:12:59.856Z,148297.44
2023-03-20T12:14:04.659Z,148270.75
2023-03-20T12:15:12.813Z,148274.38
2023-03-20T12:16:21.141Z,148267.09
2023-03-20T12:17:35.744Z,148234.34
2023-03-20T12:18:48.338Z,148235.53
2023-03-20T12:19:53.021Z,148241.59
2023-03-20T12:21:04.779Z,148188.28
2023-03-20T12:22:27.340Z,148153.09
2023-03-20T12:24:02.627Z,148202.81
2023-03-20T12:25:21.698Z,148240.38
2023-03-20T12:26:51.340Z,148305.91
2023-03-20T12:28:03.943Z,148315.59
2023-03-20T12:29:17.269Z,148348.34
2023-03-20T12:30:57.120Z,148434.47
2023-03-20T12:32:07.306Z,148347.13
2023-03-20T12:33:14.678Z,148316.81
2023-03-20T12:34:23.155Z,148290.16
2023-03-20T12:35:34.375Z,148286.53
2023-03-20T12:36:48.713Z,148286.53
2023-03-20T12:37:51.352Z,148274.38
2023-03-20T12:38:53.990Z,148279.22
2023-03-20T12:40:00.595Z,148360.50
2023-03-20T12:41:11.632Z,148353.22
2023-03-20T12:42:32.396Z,148348.34
2023-03-20T12:44:08.641Z,148349.53
2023-03-20T12:45:14.766Z,148368.97
2023-03-20T12:46:32.648Z,148350.81
2023-03-20T12:47:53.172Z,148389.59
2023-03-20T12:49:36.849Z,148354.44
2023-03-20T12:50:45.600Z,148296.22
2023-03-20T12:52:06.123Z,148237.97
2023-03-20T12:53:40.927Z,148250.06
2023-03-20T12:54:51.962Z,148173.72
2023-03-20T12:56:15.858Z,148216.13
2023-03-20T12:57:24.136Z,148233.13
2023-03-20T12:58:44.301Z,148216.13
2023-03-20T12:59:55.566Z,148182.19
2023-03-20T13:01:17.466Z,148148.25
2023-03-20T13:02:22.961Z,148115.53
2023-03-20T13:03:46.335Z,148128.88
2023-03-20T13:05:13.449Z,148160.41
2023-03-20T13:06:27.852Z,148124.03
2023-03-20T13:07:51.369Z,148104.63
2023-03-20T13:09:35.652Z,148121.56
2023-03-20T13:10:48.971Z,148116.72
2023-03-20T13:12:09.499Z,148107.06
2023-03-20T13:13:36.025Z,148085.22
2023-03-20T13:15:05.896Z,148069.47